sensor_id;sensor_type;location;lat;lon;timestamp;temperature;humidity
3086;DHT22;52812;48.960;9.108;2023-04-06T00:01:08;-0.70;99.90
3086;DHT22;52812;48.960;9.108;2023-04-06T00:03:34;-0.80;99.90
3086;DHT22;52812;48.960;9.108;2023-04-06T00:05:59;-0.90;99.90
3086;DHT22;52812;48.960;9.108;2023-04-06T00:08:26;-0.90;99.90
3086;DHT22;52812;48.960;9.108;2023-04-06T00:10:52;-0.90;99.90
3086;DHT22;52812;48.960;9.108;2023-04-06T00:13:18;-1.00;99.90
3086;DHT22;52812;48.960;9.108;2023-04-06T00:15:43;-1.00;99.90
3086;DHT22;52812;48.960;9.108;2023-04-06T00:18:09;-1.10;99.90
3086;DHT22;52812;48.960;9.108;2023-04-06T00:20:35;-1.10;99.90
3086;DHT22;52812;48.960;9.108;2023-04-06T00:23:01;-1.10;99.90
3086;DHT22;52812;48.960;9.108;2023-04-06T00:25:26;-1.10;99.90
3086;DHT22;52812;48.960;9.108;2023-04-06T00:27:52;-1.10;99.90
3086;DHT22;52812;48.960;9.108;2023-04-06T00:30:17;-1.20;99.90
3086;DHT22;52812;48.960;9.108;2023-04-06T00:32:43;-1.20;99.90
3086;DHT22;52812;48.960;9.108;2023-04-06T00:35:09;-1.20;99.90
3086;DHT22;52812;48.960;9.108;2023-04-06T00:37:35;-1.20;99.90
3086;DHT22;52812;48.960;9.108;2023-04-06T00:42:32;-1.20;99.90
3086;DHT22;52812;48.960;9.108;2023-04-06T00:44:59;-1.20;99.90
3086;DHT22;52812;48.960;9.108;2023-04-06T00:47:26;-1.30;99.90
3086;DHT22;52812;48.960;9.108;2023-04-06T00:49:56;-1.30;99.90
3086;DHT22;52812;48.960;9.108;2023-04-06T00:52:22;-1.30;99.90
3086;DHT22;52812;48.960;9.108;2023-04-06T00:54:48;-1.40;99.90
3086;DHT22;52812;48.960;9.108;2023-04-06T00:57:15;-1.40;99.90
3086;DHT22;52812;48.960;9.108;2023-04-06T00:59:40;-1.40;99.90
3086;DHT22;52812;48.960;9.108;2023-04-06T01:02:07;-1.40;99.90
3086;DHT22;52812;48.960;9.108;2023-04-06T01:04:33;-1.40;99.90
3086;DHT22;52812;48.960;9.108;2023-04-06T01:06:59;-1.50;99.90
3086;DHT22;52812;48.960;9.108;2023-04-06T01:09:26;-1.50;99.90
3086;DHT22;52812;48.960;9.108;2023-04-06T01:11:52;-1.50;99.90
3086;DHT22;52812;48.960;9.108;2023-04-06T01:14:18;-1.50;99.90
3086;DHT22;52812;48.960;9.108;2023-04-06T01:16:43;-1.50;99.90
3086;DHT22;52812;48.960;9.108;2023-04-06T01:19:12;-1.50;99.90
3086;DHT22;52812;48.960;9.108;2023-04-06T01:21:38;-1.50;99.90
3086;DHT22;52812;48.960;9.108;2023-04-06T01:24:05;-1.50;99.90
3086;DHT22;52812;48.960;9.108;2023-04-06T01:26:32;-1.50;99.90
3086;DHT22;52812;48.960;9.108;2023-04-06T01:28:57;-1.50;99.90
3086;DHT22;52812;48.960;9.108;2023-04-06T01:31:23;-1.60;99.90
3086;DHT22;52812;48.960;9.108;2023-04-06T01:33:50;-1.60;99.90
3086;DHT22;52812;48.960;9.108;2023-04-06T01:36:16;-1.70;99.90
3086;DHT22;52812;48.960;9.108;2023-04-06T01:38:41;-1.70;99.90
3086;DHT22;52812;48.960;9.108;2023-04-06T01:41:08;-1.60;99.90
3086;DHT22;52812;48.960;9.108;2023-04-06T01:43:34;-1.60;99.90
3086;DHT22;52812;48.960;9.108;2023-04-06T01:46:00;-1.60;99.90
3086;DHT22;52812;48.960;9.108;2023-04-06T01:48:26;-1.60;99.90
3086;DHT22;52812;48.960;9.108;2023-04-06T01:50:53;-1.60;99.90
3086;DHT22;52812;48.960;9.108;2023-04-06T01:53:19;-1.60;99.90
3086;DHT22;52812;48.960;9.108;2023-04-06T01:55:45;-1.70;99.90
3086;DHT22;52812;48.960;9.108;2023-04-06T01:58:11;-1.70;99.90
3086;DHT22;52812;48.960;9.108;2023-04-06T02:00:37;-1.70;99.90
3086;DHT22;52812;48.960;9.108;2023-04-06T02:03:02;-1.80;99.90
3086;DHT22;52812;48.960;9.108;2023-04-06T02:05:29;-1.70;99.90
3086;DHT22;52812;48.960;9.108;2023-04-06T02:07:55;-1.70;99.90
3086;DHT22;52812;48.960;9.108;2023-04-06T02:10:22;-1.70;99.90
3086;DHT22;52812;48.960;9.108;2023-04-06T02:12:48;-1.60;99.90
3086;DHT22;52812;48.960;9.108;2023-04-06T02:15:14;-1.60;99.90
3086;DHT22;52812;48.960;9.108;2023-04-06T02:17:41;-1.50;99.90
3086;DHT22;52812;48.960;9.108;2023-04-06T02:20:07;-1.50;99.90
3086;DHT22;52812;48.960;9.108;2023-04-06T02:22:33;-1.50;99.90
3086;DHT22;52812;48.960;9.108;2023-04-06T02:24:59;-1.50;99.90
3086;DHT22;52812;48.960;9.108;2023-04-06T02:27:24;-1.40;99.90
3086;DHT22;52812;48.960;9.108;2023-04-06T02:29:50;-1.30;99.90
3086;DHT22;52812;48.960;9.108;2023-04-06T02:32:16;-1.30;99.90
3086;DHT22;52812;48.960;9.108;2023-04-06T02:34:41;-1.30;99.90
3086;DHT22;52812;48.960;9.108;2023-04-06T02:37:07;-1.30;99.90
3086;DHT22;52812;48.960;9.108;2023-04-06T02:39:32;-1.30;99.90
3086;DHT22;52812;48.960;9.108;2023-04-06T02:41:58;-1.20;99.90
3086;DHT22;52812;48.960;9.108;2023-04-06T02:44:23;-1.20;99.90
3086;DHT22;52812;48.960;9.108;2023-04-06T02:46:49;-1.10;99.90
3086;DHT22;52812;48.960;9.108;2023-04-06T02:49:16;-1.20;99.90
3086;DHT22;52812;48.960;9.108;2023-04-06T02:51:43;-1.20;99.90
3086;DHT22;52812;48.960;9.108;2023-04-06T02:54:08;-1.20;99.90
3086;DHT22;52812;48.960;9.108;2023-04-06T02:56:34;-1.20;99.90
3086;DHT22;52812;48.960;9.108;2023-04-06T02:58:59;-1.30;99.90
3086;DHT22;52812;48.960;9.108;2023-04-06T03:01:26;-1.30;99.90
3086;DHT22;52812;48.960;9.108;2023-04-06T03:03:52;-1.30;99.90
3086;DHT22;52812;48.960;9.108;2023-04-06T03:06:17;-1.20;99.90
3086;DHT22;52812;48.960;9.108;2023-04-06T03:08:43;-1.20;99.90
3086;DHT22;52812;48.960;9.108;2023-04-06T03:11:08;-1.20;99.90
3086;DHT22;52812;48.960;9.108;2023-04-06T03:13:36;-1.20;99.90
3086;DHT22;52812;48.960;9.108;2023-04-06T03:16:04;-1.20;99.90
3086;DHT22;52812;48.960;9.108;2023-04-06T03:18:30;-1.20;99.90
3086;DHT22;52812;48.960;9.108;2023-04-06T03:20:55;-1.20;99.90
3086;DHT22;52812;48.960;9.108;2023-04-06T03:23:21;-1.30;99.90
3086;DHT22;52812;48.960;9.108;2023-04-06T03:25:47;-1.30;99.90
3086;DHT22;52812;48.960;9.108;2023-04-06T03:28:12;-1.30;99.90
3086;DHT22;52812;48.960;9.108;2023-04-06T03:30:38;-1.40;99.90
3086;DHT22;52812;48.960;9.108;2023-04-06T03:33:03;-1.40;99.90
3086;DHT22;52812;48.960;9.108;2023-04-06T03:35:29;-1.50;99.90
3086;DHT22;52812;48.960;9.108;2023-04-06T03:37:55;-1.50;99.90
3086;DHT22;52812;48.960;9.108;2023-04-06T03:40:21;-1.50;99.90
3086;DHT22;52812;48.960;9.108;2023-04-06T03:42:46;-1.50;99.90
3086;DHT22;52812;48.960;9.108;2023-04-06T03:45:12;-1.50;99.90
3086;DHT22;52812;48.960;9.108;2023-04-06T03:47:40;-1.60;99.90
3086;DHT22;52812;48.960;9.108;2023-04-06T03:50:06;-1.60;99.90
3086;DHT22;52812;48.960;9.108;2023-04-06T03:52:32;-1.60;99.90
3086;DHT22;52812;48.960;9.108;2023-04-06T03:54:57;-1.70;99.90
3086;DHT22;52812;48.960;9.108;2023-04-06T03:57:23;-1.70;99.90
3086;DHT22;52812;48.960;9.108;2023-04-06T03:59:49;-1.70;99.90
3086;DHT22;52812;48.960;9.108;2023-04-06T04:02:14;-1.70;99.90
3086;DHT22;52812;48.960;9.108;2023-04-06T04:04:40;-1.80;99.90
3086;DHT22;52812;48.960;9.108;2023-04-06T04:07:06;-1.80;99.90
3086;DHT22;52812;48.960;9.108;2023-04-06T04:09:31;-1.90;99.90
3086;DHT22;52812;48.960;9.108;2023-04-06T04:11:57;-2.00;99.90
3086;DHT22;52812;48.960;9.108;2023-04-06T04:14:22;-2.00;99.90
3086;DHT22;52812;48.960;9.108;2023-04-06T04:16:49;-2.00;99.90
3086;DHT22;52812;48.960;9.108;2023-04-06T04:19:14;-2.00;99.90
3086;DHT22;52812;48.960;9.108;2023-04-06T04:21:44;-2.10;99.90
3086;DHT22;52812;48.960;9.108;2023-04-06T04:24:10;-2.10;99.90
3086;DHT22;52812;48.960;9.108;2023-04-06T04:26:37;-2.10;99.90
3086;DHT22;52812;48.960;9.108;2023-04-06T04:29:03;-2.10;99.90
3086;DHT22;52812;48.960;9.108;2023-04-06T04:31:29;-2.10;99.90
3086;DHT22;52812;48.960;9.108;2023-04-06T04:33:55;-2.10;99.90
3086;DHT22;52812;48.960;9.108;2023-04-06T04:36:20;-2.10;99.90
3086;DHT22;52812;48.960;9.108;2023-04-06T04:38:46;-2.10;99.90
3086;DHT22;52812;48.960;9.108;2023-04-06T04:41:11;-2.20;99.90
3086;DHT22;52812;48.960;9.108;2023-04-06T04:43:37;-2.20;99.90
3086;DHT22;52812;48.960;9.108;2023-04-06T04:46:04;-2.10;99.90
3086;DHT22;52812;48.960;9.108;2023-04-06T04:48:30;-2.10;99.90
3086;DHT22;52812;48.960;9.108;2023-04-06T04:50:55;-2.20;99.90
3086;DHT22;52812;48.960;9.108;2023-04-06T04:53:21;-2.20;99.90
3086;DHT22;52812;48.960;9.108;2023-04-06T04:55:47;-2.20;99.90
3086;DHT22;52812;48.960;9.108;2023-04-06T04:58:12;-2.20;99.90
3086;DHT22;52812;48.960;9.108;2023-04-06T05:00:42;-2.20;99.90
3086;DHT22;52812;48.960;9.108;2023-04-06T05:03:08;-2.20;99.90
3086;DHT22;52812;48.960;9.108;2023-04-06T05:05:34;-2.20;99.90
3086;DHT22;52812;48.960;9.108;2023-04-06T05:08:01;-2.20;99.90
3086;DHT22;52812;48.960;9.108;2023-04-06T05:10:26;-2.10;99.90
3086;DHT22;52812;48.960;9.108;2023-04-06T05:12:52;-2.10;99.90
3086;DHT22;52812;48.960;9.108;2023-04-06T05:15:18;-2.10;99.90
3086;DHT22;52812;48.960;9.108;2023-04-06T05:17:43;-2.00;99.90
3086;DHT22;52812;48.960;9.108;2023-04-06T05:20:10;-1.90;99.90
3086;DHT22;52812;48.960;9.108;2023-04-06T05:22:35;-1.90;99.90
3086;DHT22;52812;48.960;9.108;2023-04-06T05:25:02;-1.90;99.90
3086;DHT22;52812;48.960;9.108;2023-04-06T05:27:28;-1.80;99.90
3086;DHT22;52812;48.960;9.108;2023-04-06T05:29:54;-1.70;99.90
3086;DHT22;52812;48.960;9.108;2023-04-06T05:32:20;-1.60;99.90
3086;DHT22;52812;48.960;9.108;2023-04-06T05:34:48;-1.40;99.90
3086;DHT22;52812;48.960;9.108;2023-04-06T05:37:15;-1.40;99.90
3086;DHT22;52812;48.960;9.108;2023-04-06T05:39:41;-1.20;99.90
3086;DHT22;52812;48.960;9.108;2023-04-06T05:42:07;-1.00;99.90
3086;DHT22;52812;48.960;9.108;2023-04-06T05:44:32;-0.70;99.90
3086;DHT22;52812;48.960;9.108;2023-04-06T05:46:58;-0.60;99.90
3086;DHT22;52812;48.960;9.108;2023-04-06T05:49:24;-0.30;99.90
3086;DHT22;52812;48.960;9.108;2023-04-06T05:51:49;-0.10;99.90
3086;DHT22;52812;48.960;9.108;2023-04-06T05:54:15;0.10;99.90
3086;DHT22;52812;48.960;9.108;2023-04-06T05:56:41;0.30;99.90
3086;DHT22;52812;48.960;9.108;2023-04-06T05:59:06;0.60;99.90
3086;DHT22;52812;48.960;9.108;2023-04-06T06:01:33;1.10;99.90
3086;DHT22;52812;48.960;9.108;2023-04-06T06:04:00;1.70;99.90
3086;DHT22;52812;48.960;9.108;2023-04-06T06:06:28;2.30;99.90
3086;DHT22;52812;48.960;9.108;2023-04-06T06:08:54;2.60;99.90
3086;DHT22;52812;48.960;9.108;2023-04-06T06:11:20;2.80;99.90
3086;DHT22;52812;48.960;9.108;2023-04-06T06:13:46;2.90;99.90
3086;DHT22;52812;48.960;9.108;2023-04-06T06:16:12;3.00;99.90
3086;DHT22;52812;48.960;9.108;2023-04-06T06:18:38;3.30;99.90
3086;DHT22;52812;48.960;9.108;2023-04-06T06:21:03;3.60;99.90
3086;DHT22;52812;48.960;9.108;2023-04-06T06:23:29;3.70;99.90
3086;DHT22;52812;48.960;9.108;2023-04-06T06:25:55;4.00;99.90
3086;DHT22;52812;48.960;9.108;2023-04-06T06:28:23;3.70;99.90
3086;DHT22;52812;48.960;9.108;2023-04-06T06:30:50;3.70;99.90
3086;DHT22;52812;48.960;9.108;2023-04-06T06:33:16;3.80;99.90
3086;DHT22;52812;48.960;9.108;2023-04-06T06:35:42;4.20;99.90
3086;DHT22;52812;48.960;9.108;2023-04-06T06:38:07;4.40;99.90
3086;DHT22;52812;48.960;9.108;2023-04-06T06:40:33;4.60;99.90
3086;DHT22;52812;48.960;9.108;2023-04-06T06:42:59;4.70;99.90
3086;DHT22;52812;48.960;9.108;2023-04-06T06:45:25;5.20;99.90
3086;DHT22;52812;48.960;9.108;2023-04-06T06:47:51;5.10;99.90
3086;DHT22;52812;48.960;9.108;2023-04-06T06:50:16;5.20;99.90
3086;DHT22;52812;48.960;9.108;2023-04-06T06:52:42;5.40;99.90
3086;DHT22;52812;48.960;9.108;2023-04-06T06:55:09;5.80;99.90
3086;DHT22;52812;48.960;9.108;2023-04-06T06:57:35;6.10;99.90
3086;DHT22;52812;48.960;9.108;2023-04-06T07:00:01;6.30;99.90
3086;DHT22;52812;48.960;9.108;2023-04-06T07:02:26;6.50;99.90
3086;DHT22;52812;48.960;9.108;2023-04-06T07:04:52;6.50;99.90
3086;DHT22;52812;48.960;9.108;2023-04-06T07:07:18;6.60;99.90
3086;DHT22;52812;48.960;9.108;2023-04-06T07:09:43;6.80;99.90
3086;DHT22;52812;48.960;9.108;2023-04-06T07:12:09;6.90;99.90
3086;DHT22;52812;48.960;9.108;2023-04-06T07:14:34;6.80;99.90
3086;DHT22;52812;48.960;9.108;2023-04-06T07:17:01;6.90;99.90
3086;DHT22;52812;48.960;9.108;2023-04-06T07:19:27;7.10;99.90
3086;DHT22;52812;48.960;9.108;2023-04-06T07:21:53;7.20;99.90
3086;DHT22;52812;48.960;9.108;2023-04-06T07:24:18;7.30;99.90
3086;DHT22;52812;48.960;9.108;2023-04-06T07:26:44;7.20;99.90
3086;DHT22;52812;48.960;9.108;2023-04-06T07:29:09;7.20;99.90
3086;DHT22;52812;48.960;9.108;2023-04-06T07:31:35;7.30;99.90
3086;DHT22;52812;48.960;9.108;2023-04-06T07:34:01;7.50;99.90
3086;DHT22;52812;48.960;9.108;2023-04-06T07:36:27;7.60;99.90
3086;DHT22;52812;48.960;9.108;2023-04-06T07:38:52;8.10;99.90
3086;DHT22;52812;48.960;9.108;2023-04-06T07:41:18;8.30;99.90
3086;DHT22;52812;48.960;9.108;2023-04-06T07:43:43;8.20;99.90
3086;DHT22;52812;48.960;9.108;2023-04-06T07:46:09;8.10;99.90
3086;DHT22;52812;48.960;9.108;2023-04-06T07:48:35;8.40;99.90
3086;DHT22;52812;48.960;9.108;2023-04-06T07:51:03;8.00;99.90
3086;DHT22;52812;48.960;9.108;2023-04-06T07:53:29;8.30;99.90
3086;DHT22;52812;48.960;9.108;2023-04-06T07:55:56;8.30;99.90
3086;DHT22;52812;48.960;9.108;2023-04-06T07:58:21;8.10;99.90
3086;DHT22;52812;48.960;9.108;2023-04-06T08:00:47;8.30;99.90
3086;DHT22;52812;48.960;9.108;2023-04-06T08:03:13;8.00;99.90
3086;DHT22;52812;48.960;9.108;2023-04-06T08:05:38;8.00;99.90
3086;DHT22;52812;48.960;9.108;2023-04-06T08:08:04;8.20;99.90
3086;DHT22;52812;48.960;9.108;2023-04-06T08:10:29;8.10;99.90
3086;DHT22;52812;48.960;9.108;2023-04-06T08:12:55;8.50;99.90
3086;DHT22;52812;48.960;9.108;2023-04-06T08:15:21;8.60;99.90
3086;DHT22;52812;48.960;9.108;2023-04-06T08:17:46;8.70;99.90
3086;DHT22;52812;48.960;9.108;2023-04-06T08:20:12;8.80;99.90
3086;DHT22;52812;48.960;9.108;2023-04-06T08:22:37;8.70;99.90
3086;DHT22;52812;48.960;9.108;2023-04-06T08:25:03;8.60;99.90
3086;DHT22;52812;48.960;9.108;2023-04-06T08:27:29;8.40;99.90
3086;DHT22;52812;48.960;9.108;2023-04-06T08:29:55;8.50;99.90
3086;DHT22;52812;48.960;9.108;2023-04-06T08:32:20;8.10;99.90
3086;DHT22;52812;48.960;9.108;2023-04-06T08:34:46;8.00;99.90
3086;DHT22;52812;48.960;9.108;2023-04-06T08:37:12;8.00;99.90
3086;DHT22;52812;48.960;9.108;2023-04-06T08:39:37;8.00;99.90
3086;DHT22;52812;48.960;9.108;2023-04-06T08:42:03;8.10;99.90
3086;DHT22;52812;48.960;9.108;2023-04-06T08:44:29;8.10;99.90
3086;DHT22;52812;48.960;9.108;2023-04-06T08:46:57;8.20;99.90
3086;DHT22;52812;48.960;9.108;2023-04-06T08:49:24;8.10;99.90
3086;DHT22;52812;48.960;9.108;2023-04-06T08:51:50;8.40;99.90
3086;DHT22;52812;48.960;9.108;2023-04-06T08:54:16;8.50;99.90
3086;DHT22;52812;48.960;9.108;2023-04-06T08:56:42;8.60;99.90
3086;DHT22;52812;48.960;9.108;2023-04-06T08:59:09;8.70;99.90
3086;DHT22;52812;48.960;9.108;2023-04-06T09:01:39;8.80;99.90
3086;DHT22;52812;48.960;9.108;2023-04-06T09:04:07;9.00;99.90
3086;DHT22;52812;48.960;9.108;2023-04-06T09:06:36;9.30;99.90
3086;DHT22;52812;48.960;9.108;2023-04-06T09:09:02;9.40;99.90
3086;DHT22;52812;48.960;9.108;2023-04-06T09:11:28;9.40;99.90
3086;DHT22;52812;48.960;9.108;2023-04-06T09:13:55;9.30;99.90
3086;DHT22;52812;48.960;9.108;2023-04-06T09:16:22;9.40;99.90
3086;DHT22;52812;48.960;9.108;2023-04-06T09:18:49;9.70;99.90
3086;DHT22;52812;48.960;9.108;2023-04-06T09:21:17;9.90;99.90
3086;DHT22;52812;48.960;9.108;2023-04-06T09:23:44;9.90;99.90
3086;DHT22;52812;48.960;9.108;2023-04-06T09:28:50;10.10;99.90
3086;DHT22;52812;48.960;9.108;2023-04-06T09:31:21;10.10;99.90
3086;DHT22;52812;48.960;9.108;2023-04-06T09:33:47;10.30;99.90
3086;DHT22;52812;48.960;9.108;2023-04-06T09:36:13;10.40;99.90
3086;DHT22;52812;48.960;9.108;2023-04-06T09:38:55;10.60;99.90
3086;DHT22;52812;48.960;9.108;2023-04-06T09:41:28;10.60;99.90
3086;DHT22;52812;48.960;9.108;2023-04-06T09:44:03;10.70;99.90
3086;DHT22;52812;48.960;9.108;2023-04-06T09:46:32;10.60;99.90
3086;DHT22;52812;48.960;9.108;2023-04-06T09:49:03;10.60;99.90
3086;DHT22;52812;48.960;9.108;2023-04-06T09:51:31;10.80;99.90
3086;DHT22;52812;48.960;9.108;2023-04-06T09:54:01;11.00;99.90
3086;DHT22;52812;48.960;9.108;2023-04-06T09:56:33;11.20;99.90
3086;DHT22;52812;48.960;9.108;2023-04-06T09:59:08;10.80;99.90
3086;DHT22;52812;48.960;9.108;2023-04-06T10:01:36;10.80;99.90
3086;DHT22;52812;48.960;9.108;2023-04-06T10:04:23;10.90;99.90
3086;DHT22;52812;48.960;9.108;2023-04-06T10:06:52;10.80;99.90
3086;DHT22;52812;48.960;9.108;2023-04-06T10:09:19;10.80;99.90
3086;DHT22;52812;48.960;9.108;2023-04-06T10:11:46;10.80;99.90
3086;DHT22;52812;48.960;9.108;2023-04-06T10:14:13;10.80;99.90
3086;DHT22;52812;48.960;9.108;2023-04-06T10:16:39;11.20;99.90
3086;DHT22;52812;48.960;9.108;2023-04-06T10:19:13;11.40;99.90
3086;DHT22;52812;48.960;9.108;2023-04-06T10:21:40;11.30;99.90
3086;DHT22;52812;48.960;9.108;2023-04-06T10:24:09;11.20;99.90
3086;DHT22;52812;48.960;9.108;2023-04-06T10:26:36;11.00;99.90
3086;DHT22;52812;48.960;9.108;2023-04-06T10:29:04;11.20;99.70
3086;DHT22;52812;48.960;9.108;2023-04-06T10:31:30;10.90;99.90
3086;DHT22;52812;48.960;9.108;2023-04-06T10:34:00;10.70;99.90
3086;DHT22;52812;48.960;9.108;2023-04-06T10:36:31;10.70;99.90
3086;DHT22;52812;48.960;9.108;2023-04-06T10:38:59;10.70;99.90
3086;DHT22;52812;48.960;9.108;2023-04-06T10:41:51;11.10;99.90
3086;DHT22;52812;48.960;9.108;2023-04-06T10:44:22;11.40;99.90
3086;DHT22;52812;48.960;9.108;2023-04-06T10:46:59;11.70;99.90
3086;DHT22;52812;48.960;9.108;2023-04-06T10:49:26;11.70;98.30
3086;DHT22;52812;48.960;9.108;2023-04-06T10:51:54;11.70;97.90
3086;DHT22;52812;48.960;9.108;2023-04-06T10:54:21;11.60;97.10
3086;DHT22;52812;48.960;9.108;2023-04-06T10:56:48;11.70;98.00
3086;DHT22;52812;48.960;9.108;2023-04-06T10:59:19;11.60;99.50
3086;DHT22;52812;48.960;9.108;2023-04-06T11:01:44;11.70;98.40
3086;DHT22;52812;48.960;9.108;2023-04-06T11:04:16;11.90;97.10
3086;DHT22;52812;48.960;9.108;2023-04-06T11:06:46;11.80;95.50
3086;DHT22;52812;48.960;9.108;2023-04-06T11:09:26;11.60;95.90
3086;DHT22;52812;48.960;9.108;2023-04-06T11:11:52;11.60;96.30
3086;DHT22;52812;48.960;9.108;2023-04-06T11:14:18;11.60;96.60
3086;DHT22;52812;48.960;9.108;2023-04-06T11:16:46;11.70;96.00
3086;DHT22;52812;48.960;9.108;2023-04-06T11:19:13;11.90;96.50
3086;DHT22;52812;48.960;9.108;2023-04-06T11:21:44;11.80;96.00
3086;DHT22;52812;48.960;9.108;2023-04-06T11:24:24;11.70;99.90
3086;DHT22;52812;48.960;9.108;2023-04-06T11:26:53;11.80;97.80
3086;DHT22;52812;48.960;9.108;2023-04-06T11:29:23;11.70;96.00
3086;DHT22;52812;48.960;9.108;2023-04-06T11:31:57;11.80;97.20
3086;DHT22;52812;48.960;9.108;2023-04-06T11:34:25;12.00;97.70
3086;DHT22;52812;48.960;9.108;2023-04-06T11:37:01;12.10;96.60
3086;DHT22;52812;48.960;9.108;2023-04-06T11:39:28;12.10;95.50
3086;DHT22;52812;48.960;9.108;2023-04-06T11:41:59;12.20;97.20
3086;DHT22;52812;48.960;9.108;2023-04-06T11:47:02;12.40;96.60
3086;DHT22;52812;48.960;9.108;2023-04-06T11:49:29;12.50;94.20
3086;DHT22;52812;48.960;9.108;2023-04-06T11:51:56;12.40;94.90
3086;DHT22;52812;48.960;9.108;2023-04-06T11:54:38;12.40;94.10
3086;DHT22;52812;48.960;9.108;2023-04-06T11:57:04;12.40;95.00
3086;DHT22;52812;48.960;9.108;2023-04-06T11:59:31;12.40;96.20
3086;DHT22;52812;48.960;9.108;2023-04-06T12:01:57;12.40;96.40
3086;DHT22;52812;48.960;9.108;2023-04-06T12:04:23;12.50;95.80
3086;DHT22;52812;48.960;9.108;2023-04-06T12:06:49;12.60;94.60
3086;DHT22;52812;48.960;9.108;2023-04-06T12:09:16;12.30;92.20
3086;DHT22;52812;48.960;9.108;2023-04-06T12:11:45;11.80;94.90
3086;DHT22;52812;48.960;9.108;2023-04-06T12:14:11;11.60;95.70
3086;DHT22;52812;48.960;9.108;2023-04-06T12:16:37;11.50;95.70
3086;DHT22;52812;48.960;9.108;2023-04-06T12:19:03;11.50;94.10
3086;DHT22;52812;48.960;9.108;2023-04-06T12:21:30;11.70;93.60
3086;DHT22;52812;48.960;9.108;2023-04-06T12:23:59;12.10;93.20
3086;DHT22;52812;48.960;9.108;2023-04-06T12:26:25;12.00;92.90
3086;DHT22;52812;48.960;9.108;2023-04-06T12:28:51;12.20;92.70
3086;DHT22;52812;48.960;9.108;2023-04-06T12:31:18;12.40;93.00
3086;DHT22;52812;48.960;9.108;2023-04-06T12:33:46;12.30;91.60
3086;DHT22;52812;48.960;9.108;2023-04-06T12:36:16;12.20;92.40
3086;DHT22;52812;48.960;9.108;2023-04-06T12:38:45;12.30;92.80
3086;DHT22;52812;48.960;9.108;2023-04-06T12:41:11;12.40;93.60
3086;DHT22;52812;48.960;9.108;2023-04-06T12:43:37;12.70;94.00
3086;DHT22;52812;48.960;9.108;2023-04-06T12:46:03;12.60;92.70
3086;DHT22;52812;48.960;9.108;2023-04-06T12:48:29;12.60;91.70
3086;DHT22;52812;48.960;9.108;2023-04-06T12:50:58;12.50;91.80
3086;DHT22;52812;48.960;9.108;2023-04-06T12:53:26;12.40;91.50
3086;DHT22;52812;48.960;9.108;2023-04-06T12:55:53;12.40;91.40
3086;DHT22;52812;48.960;9.108;2023-04-06T12:58:20;12.40;94.20
3086;DHT22;52812;48.960;9.108;2023-04-06T13:00:47;12.50;90.90
3086;DHT22;52812;48.960;9.108;2023-04-06T13:03:13;12.60;92.00
3086;DHT22;52812;48.960;9.108;2023-04-06T13:05:45;12.50;90.50
3086;DHT22;52812;48.960;9.108;2023-04-06T13:08:12;12.70;90.40
3086;DHT22;52812;48.960;9.108;2023-04-06T13:10:38;12.70;92.00
3086;DHT22;52812;48.960;9.108;2023-04-06T13:13:03;12.60;92.90
3086;DHT22;52812;48.960;9.108;2023-04-06T13:15:30;12.80;93.10
3086;DHT22;52812;48.960;9.108;2023-04-06T13:17:57;13.00;93.90
3086;DHT22;52812;48.960;9.108;2023-04-06T13:20:25;13.40;93.20
3086;DHT22;52812;48.960;9.108;2023-04-06T13:22:51;13.60;91.90
3086;DHT22;52812;48.960;9.108;2023-04-06T13:25:17;13.50;91.40
3086;DHT22;52812;48.960;9.108;2023-04-06T13:27:42;13.40;90.60
3086;DHT22;52812;48.960;9.108;2023-04-06T13:30:12;13.30;89.00
3086;DHT22;52812;48.960;9.108;2023-04-06T13:32:38;13.20;89.70
3086;DHT22;52812;48.960;9.108;2023-04-06T13:35:04;13.20;90.30
3086;DHT22;52812;48.960;9.108;2023-04-06T13:37:30;13.40;91.10
3086;DHT22;52812;48.960;9.108;2023-04-06T13:39:55;13.50;90.10
3086;DHT22;52812;48.960;9.108;2023-04-06T13:42:21;13.40;91.10
3086;DHT22;52812;48.960;9.108;2023-04-06T13:44:50;13.30;90.10
3086;DHT22;52812;48.960;9.108;2023-04-06T13:47:16;13.10;89.30
3086;DHT22;52812;48.960;9.108;2023-04-06T13:49:46;12.90;91.50
3086;DHT22;52812;48.960;9.108;2023-04-06T13:52:12;13.00;90.50
3086;DHT22;52812;48.960;9.108;2023-04-06T13:54:37;12.80;88.20
3086;DHT22;52812;48.960;9.108;2023-04-06T13:57:03;12.80;90.30
3086;DHT22;52812;48.960;9.108;2023-04-06T13:59:35;12.60;91.40
3086;DHT22;52812;48.960;9.108;2023-04-06T14:02:02;12.90;91.70
3086;DHT22;52812;48.960;9.108;2023-04-06T14:04:28;13.10;89.80
3086;DHT22;52812;48.960;9.108;2023-04-06T14:06:54;13.10;88.20
3086;DHT22;52812;48.960;9.108;2023-04-06T14:09:23;13.20;90.00
3086;DHT22;52812;48.960;9.108;2023-04-06T14:11:49;13.50;90.90
3086;DHT22;52812;48.960;9.108;2023-04-06T14:14:15;13.60;90.40
3086;DHT22;52812;48.960;9.108;2023-04-06T14:16:42;13.60;90.20
3086;DHT22;52812;48.960;9.108;2023-04-06T14:19:12;13.70;91.70
3086;DHT22;52812;48.960;9.108;2023-04-06T14:21:41;13.70;90.00
3086;DHT22;52812;48.960;9.108;2023-04-06T14:24:08;13.70;89.30
3086;DHT22;52812;48.960;9.108;2023-04-06T14:26:35;13.70;90.90
3086;DHT22;52812;48.960;9.108;2023-04-06T14:29:01;13.60;87.20
3086;DHT22;52812;48.960;9.108;2023-04-06T14:31:26;13.50;90.40
3086;DHT22;52812;48.960;9.108;2023-04-06T14:33:53;13.50;91.00
3086;DHT22;52812;48.960;9.108;2023-04-06T14:36:18;13.50;86.80
3086;DHT22;52812;48.960;9.108;2023-04-06T14:38:44;13.40;87.10
3086;DHT22;52812;48.960;9.108;2023-04-06T14:41:19;13.40;88.90
3086;DHT22;52812;48.960;9.108;2023-04-06T14:43:48;13.00;92.00
3086;DHT22;52812;48.960;9.108;2023-04-06T14:46:14;13.10;90.70
3086;DHT22;52812;48.960;9.108;2023-04-06T14:48:43;13.10;90.40
3086;DHT22;52812;48.960;9.108;2023-04-06T14:51:09;13.20;92.10
3086;DHT22;52812;48.960;9.108;2023-04-06T14:53:35;13.30;91.00
3086;DHT22;52812;48.960;9.108;2023-04-06T14:56:00;13.30;91.80
3086;DHT22;52812;48.960;9.108;2023-04-06T14:58:26;13.40;93.20
3086;DHT22;52812;48.960;9.108;2023-04-06T15:00:56;13.40;92.30
3086;DHT22;52812;48.960;9.108;2023-04-06T15:03:23;13.30;91.50
3086;DHT22;52812;48.960;9.108;2023-04-06T15:05:53;13.30;91.30
3086;DHT22;52812;48.960;9.108;2023-04-06T15:08:19;13.30;90.20
3086;DHT22;52812;48.960;9.108;2023-04-06T15:10:48;13.20;91.70
3086;DHT22;52812;48.960;9.108;2023-04-06T15:13:14;13.30;92.60
3086;DHT22;52812;48.960;9.108;2023-04-06T15:15:40;13.40;92.10
3086;DHT22;52812;48.960;9.108;2023-04-06T15:18:07;13.40;91.10
3086;DHT22;52812;48.960;9.108;2023-04-06T15:20:32;13.40;91.50
3086;DHT22;52812;48.960;9.108;2023-04-06T15:22:58;13.40;93.70
3086;DHT22;52812;48.960;9.108;2023-04-06T15:25:24;13.40;92.10
3086;DHT22;52812;48.960;9.108;2023-04-06T15:27:50;13.40;92.80
3086;DHT22;52812;48.960;9.108;2023-04-06T15:30:15;13.50;92.30
3086;DHT22;52812;48.960;9.108;2023-04-06T15:33:00;13.60;92.90
3086;DHT22;52812;48.960;9.108;2023-04-06T15:35:26;13.60;92.60
3086;DHT22;52812;48.960;9.108;2023-04-06T15:37:52;13.50;92.90
3086;DHT22;52812;48.960;9.108;2023-04-06T15:40:18;13.60;92.60
3086;DHT22;52812;48.960;9.108;2023-04-06T15:42:44;13.50;90.50
3086;DHT22;52812;48.960;9.108;2023-04-06T15:45:10;13.40;90.70
3086;DHT22;52812;48.960;9.108;2023-04-06T15:47:37;13.40;92.40
3086;DHT22;52812;48.960;9.108;2023-04-06T15:50:03;13.50;93.40
3086;DHT22;52812;48.960;9.108;2023-04-06T15:52:29;13.40;92.60
3086;DHT22;52812;48.960;9.108;2023-04-06T15:54:54;13.50;92.10